createdAt,value
2019-02-26T00:07:18.233Z,100116.58
2019-02-26T00:13:48.053Z,100105.86
2019-02-26T00:20:17.551Z,100112.75
2019-02-26T00:26:43.479Z,100124.55
2019-02-26T00:33:09.530Z,100112.89
2019-02-26T00:39:39.389Z,100122.34
2019-02-26T00:45:45.806Z,100119.45
2019-02-26T00:52:20.954Z,100115.08
2019-02-26T00:58:50.314Z,100111.63
2019-02-26T01:09:08.214Z,100109.75
2019-02-26T01:15:32.710Z,100112.02
2019-02-26T01:22:04.090Z,100099.23
2019-02-26T01:28:33.499Z,100087.00
2019-02-26T01:35:05.814Z,100081.59
2019-02-26T01:41:33.957Z,100079.56
2019-02-26T01:47:26.374Z,100080.25
2019-02-26T01:53:55.517Z,100069.09
2019-02-26T02:00:26.131Z,100054.63
2019-02-26T02:10:33.395Z,100050.59
2019-02-26T02:17:08.355Z,100046.84
2019-02-26T02:23:38.748Z,100045.69
2019-02-26T02:30:03.777Z,100037.80
2019-02-26T02:36:33.845Z,100036.45
2019-02-26T02:43:09.741Z,100027.42
2019-02-26T02:48:57.977Z,100028.70
2019-02-26T02:55:27.058Z,100029.34
2019-02-26T03:01:57.005Z,100040.03
2019-02-26T03:11:59.577Z,100037.25
2019-02-26T03:18:27.482Z,100035.35
2019-02-26T03:24:54.381Z,100023.91
2019-02-26T03:31:19.998Z,100027.39
2019-02-26T03:37:45.851Z,100022.02
2019-02-26T03:43:41.713Z,100014.12
2019-02-26T03:49:59.041Z,100010.42
2019-02-26T03:56:24.080Z,100006.50
2019-02-26T04:02:51.985Z,100015.35
2019-02-26T04:13:05.980Z,100015.05
2019-02-26T04:19:44.936Z,100014.50
2019-02-26T04:26:50.098Z,100011.09
2019-02-26T04:34:10.713Z,100007.10
2019-02-26T04:41:22.579Z,100000.16
2019-02-26T04:52:02.053Z,99990.08
2019-02-26T04:58:29.856Z,99992.42
2019-02-26T05:04:55.982Z,99986.28
2019-02-26T05:14:56.603Z,99988.00
2019-02-26T05:21:27.069Z,99979.50
2019-02-26T05:27:50.988Z,99971.54
2019-02-26T05:34:29.304Z,99980.27
2019-02-26T05:41:08.273Z,99977.99
2019-02-26T05:47:32.066Z,99983.59
2019-02-26T05:54:01.747Z,99982.47
2019-02-26T06:00:33.184Z,99985.66
2019-02-26T06:06:59.890Z,99990.98
2019-02-26T06:17:01.568Z,99993.13
2019-02-26T06:23:28.270Z,100005.47
2019-02-26T06:29:55.480Z,100008.81
2019-02-26T06:36:21.506Z,100011.16
2019-02-26T06:42:59.232Z,100012.77
2019-02-26T06:49:02.621Z,100017.08
2019-02-26T06:55:44.821Z,100025.19
2019-02-26T07:02:28.270Z,100024.80
2019-02-26T07:08:53.443Z,100030.08
2019-02-26T07:18:54.582Z,100038.13
2019-02-26T07:25:20.403Z,100051.22
2019-02-26T07:31:47.244Z,100050.00
2019-02-26T07:38:21.214Z,100053.33
2019-02-26T07:44:46.963Z,100057.27
2019-02-26T07:51:14.801Z,100058.39
2019-02-26T07:57:41.254Z,100062.42
2019-02-26T08:04:11.071Z,100059.52
2019-02-26T08:10:50.388Z,100051.31
2019-02-26T08:20:19.887Z,100049.24
2019-02-26T08:26:49.944Z,100049.13
2019-02-26T08:33:14.750Z,100040.77
2019-02-26T08:39:57.408Z,100038.81
2019-02-26T08:46:22.126Z,100039.49
2019-02-26T08:52:50.038Z,100019.11
2019-02-26T08:59:15.509Z,100023.42
2019-02-26T09:05:42.030Z,100014.02
2019-02-26T09:12:11.669Z,99998.66
2019-02-26T09:22:14.970Z,99985.71
2019-02-26T09:28:40.459Z,99974.55
2019-02-26T09:35:24.659Z,99961.23
2019-02-26T09:42:02.415Z,99955.74
2019-02-26T09:48:42.563Z,99952.12
2019-02-26T09:55:10.573Z,99963.59
2019-02-26T10:01:37.860Z,99954.75
2019-02-26T10:08:05.328Z,99951.43
2019-02-26T10:14:31.106Z,99940.87
2019-02-26T10:24:35.342Z,99932.94
2019-02-26T10:31:03.875Z,99935.30
2019-02-26T10:37:27.541Z,99936.69
2019-02-26T10:44:06.492Z,99936.95
2019-02-26T10:50:49.695Z,99943.62
2019-02-26T10:57:20.023Z,99935.23
2019-02-26T11:03:47.246Z,99927.28
2019-02-26T11:10:20.817Z,99916.87
2019-02-26T11:16:48.922Z,99902.80
2019-02-26T11:26:51.599Z,99899.38
2019-02-26T11:33:30.838Z,99898.37
2019-02-26T11:39:57.710Z,99890.30
2019-02-26T11:46:25.284Z,99897.72
2019-02-26T11:52:54.956Z,99881.88
2019-02-26T11:59:23.228Z,99879.58
2019-02-26T12:05:50.864Z,99870.48
2019-02-26T12:11:43.107Z,99866.38
2019-02-26T12:18:13.072Z,99856.53
2019-02-26T12:28:13.716Z,99853.88
2019-02-26T12:34:41.331Z,99842.30
2019-02-26T12:41:08.848Z,99844.61
2019-02-26T12:47:35.852Z,99834.69
2019-02-26T12:54:03.439Z,99822.44
2019-02-26T13:00:34.720Z,99814.86
2019-02-26T13:06:58.363Z,99809.14
2019-02-26T13:13:07.133Z,99791.25
2019-02-26T13:19:41.557Z,99786.89
2019-02-26T13:29:57.126Z,99770.50
2019-02-26T13:36:22.636Z,99759.03
2019-02-26T13:42:56.585Z,99761.17
2019-02-26T13:49:23.346Z,99753.33
2019-02-26T13:55:53.302Z,99754.05
2019-02-26T14:02:20.256Z,99742.23
2019-02-26T14:08:47.857Z,99740.94
2019-02-26T14:14:54.722Z,99728.28
2019-02-26T14:21:22.353Z,99722.36
2019-02-26T14:31:12.189Z,99712.81
2019-02-26T14:37:38.856Z,99711.08
2019-02-26T14:44:07.070Z,99702.49
2019-02-26T14:50:33.127Z,99703.45
2019-02-26T14:56:58.459Z,99688.18
2019-02-26T15:03:26.351Z,99687.39
2019-02-26T15:09:53.019Z,99676.14
2019-02-26T15:16:19.449Z,99679.27
2019-02-26T15:22:47.043Z,99684.38
2019-02-26T15:32:50.017Z,99684.48
2019-02-26T15:39:17.608Z,99683.52
2019-02-26T15:45:51.583Z,99678.20
2019-02-26T15:51:59.394Z,99672.16
2019-02-26T15:58:29.018Z,99670.08
2019-02-26T16:04:54.864Z,99670.88
2019-02-26T16:11:21.904Z,99683.06
2019-02-26T16:17:49.760Z,99662.81
2019-02-26T16:24:17.585Z,99665.39
2019-02-26T16:34:25.715Z,99656.28
2019-02-26T16:41:04.914Z,99656.99
2019-02-26T16:47:42.279Z,99657.19
2019-02-26T16:53:34.279Z,99667.80
2019-02-26T17:00:04.846Z,99663.66
2019-02-26T17:06:30.665Z,99668.72
2019-02-26T17:13:09.615Z,99673.79
2019-02-26T17:19:35.433Z,99677.29
2019-02-26T17:26:01.182Z,99684.70
2019-02-26T17:36:17.355Z,99703.55
2019-02-26T17:42:58.325Z,99713.19
2019-02-26T17:49:28.816Z,99714.77
2019-02-26T17:55:58.040Z,99716.70
2019-02-26T18:02:38.011Z,99731.08
2019-02-26T18:09:03.828Z,99731.67
2019-02-26T18:15:31.465Z,99730.41
2019-02-26T18:22:01.412Z,99739.73
2019-02-26T18:28:47.396Z,99735.36
2019-02-26T18:38:50.514Z,99740.92
2019-02-26T18:45:27.985Z,99731.44
2019-02-26T18:51:57.955Z,99732.39
2019-02-26T18:58:37.284Z,99724.47
2019-02-26T19:05:03.115Z,99734.37
2019-02-26T19:11:28.921Z,99728.17
2019-02-26T19:18:05.844Z,99724.41
2019-02-26T19:24:18.531Z,99717.72
2019-02-26T19:30:44.105Z,99730.11
2019-02-26T19:40:47.321Z,99726.35
2019-02-26T19:47:14.271Z,99727.98
2019-02-26T19:53:53.902Z,99732.30
2019-02-26T20:00:20.951Z,99738.02
2019-02-26T20:06:48.787Z,99732.88
2019-02-26T20:13:26.720Z,99736.78
2019-02-26T20:19:52.457Z,99735.23
2019-02-26T20:25:43.294Z,99732.55
2019-02-26T20:32:12.618Z,99731.56
2019-02-26T20:42:29.905Z,99723.56
2019-02-26T20:49:12.269Z,99727.70
2019-02-26T20:55:38.778Z,99725.13
2019-02-26T21:02:04.237Z,99725.95
2019-02-26T21:08:36.230Z,99730.34
2019-02-26T21:15:04.136Z,99729.03
2019-02-26T21:21:31.163Z,99728.20
2019-02-26T21:27:23.707Z,99724.31
2019-02-26T21:33:48.092Z,99718.77
2019-02-26T21:43:14.062Z,99723.34
2019-02-26T21:49:53.029Z,99721.82
2019-02-26T21:56:18.833Z,99713.81
2019-02-26T22:02:46.467Z,99711.72
2019-02-26T22:09:30.644Z,99714.05
2019-02-26T22:15:56.492Z,99718.50
2019-02-26T22:22:26.233Z,99717.39
2019-02-26T22:28:53.134Z,99716.03
2019-02-26T22:35:31.758Z,99719.67
2019-02-26T22:45:33.883Z,99715.65
2019-02-26T22:51:34.662Z,99712.91
2019-02-26T22:58:02.796Z,99705.08
2019-02-26T23:56:25.602Z,99708.96
